sensor_id;sensor_type;location;lat;lon;timestamp;temperature;humidity
22923;DHT22;11627;51.322;22.816;2023-04-01T00:01:02;8.70;99.90
22923;DHT22;11627;51.322;22.816;2023-04-01T00:03:29;8.60;99.90
22923;DHT22;11627;51.322;22.816;2023-04-01T00:05:59;8.60;99.90
22923;DHT22;11627;51.322;22.816;2023-04-01T00:08:25;8.60;99.90
22923;DHT22;11627;51.322;22.816;2023-04-01T00:10:53;8.50;99.90
22923;DHT22;11627;51.322;22.816;2023-04-01T00:13:21;8.50;99.90
22923;DHT22;11627;51.322;22.816;2023-04-01T00:15:47;8.40;99.90
22923;DHT22;11627;51.322;22.816;2023-04-01T00:18:14;8.40;99.90
22923;DHT22;11627;51.322;22.816;2023-04-01T00:20:51;8.30;99.90
22923;DHT22;11627;51.322;22.816;2023-04-01T00:23:18;8.30;99.90
22923;DHT22;11627;51.322;22.816;2023-04-01T00:25:44;8.30;99.90
22923;DHT22;11627;51.322;22.816;2023-04-01T00:28:12;8.40;99.90
22923;DHT22;11627;51.322;22.816;2023-04-01T00:30:38;8.30;99.90
22923;DHT22;11627;51.322;22.816;2023-04-01T00:33:04;8.30;99.90
22923;DHT22;11627;51.322;22.816;2023-04-01T00:35:30;8.30;99.90
22923;DHT22;11627;51.322;22.816;2023-04-01T00:37:59;8.30;99.90
22923;DHT22;11627;51.322;22.816;2023-04-01T00:40:40;8.30;99.90
22923;DHT22;11627;51.322;22.816;2023-04-01T00:43:18;8.20;99.90
22923;DHT22;11627;51.322;22.816;2023-04-01T00:45:47;8.20;99.90
22923;DHT22;11627;51.322;22.816;2023-04-01T00:48:17;8.20;99.90
22923;DHT22;11627;51.322;22.816;2023-04-01T00:51:23;8.10;99.90
22923;DHT22;11627;51.322;22.816;2023-04-01T00:53:45;8.10;99.90
22923;DHT22;11627;51.322;22.816;2023-04-01T00:56:30;8.00;99.90
22923;DHT22;11627;51.322;22.816;2023-04-01T00:59:04;8.00;99.90
22923;DHT22;11627;51.322;22.816;2023-04-01T01:01:34;7.90;99.90
22923;DHT22;11627;51.322;22.816;2023-04-01T01:04:03;7.80;99.90
22923;DHT22;11627;51.322;22.816;2023-04-01T01:12:17;7.80;99.90
22923;DHT22;11627;51.322;22.816;2023-04-01T01:16:12;7.70;99.90
22923;DHT22;11627;51.322;22.816;2023-04-01T01:18:23;7.70;99.90
22923;DHT22;11627;51.322;22.816;2023-04-01T01:24:08;7.70;99.90
22923;DHT22;11627;51.322;22.816;2023-04-01T01:27:09;7.70;99.90
22923;DHT22;11627;51.322;22.816;2023-04-01T01:32:50;7.70;99.90
22923;DHT22;11627;51.322;22.816;2023-04-01T01:35:41;7.60;99.90
22923;DHT22;11627;51.322;22.816;2023-04-01T01:38:15;7.60;99.90
22923;DHT22;11627;51.322;22.816;2023-04-01T01:40:46;7.60;99.90
22923;DHT22;11627;51.322;22.816;2023-04-01T01:43:17;7.60;99.90
22923;DHT22;11627;51.322;22.816;2023-04-01T01:45:50;7.60;99.90
22923;DHT22;11627;51.322;22.816;2023-04-01T01:48:18;7.70;99.90
22923;DHT22;11627;51.322;22.816;2023-04-01T01:50:46;7.60;99.90
22923;DHT22;11627;51.322;22.816;2023-04-01T01:53:12;7.60;99.90
22923;DHT22;11627;51.322;22.816;2023-04-01T01:55:41;7.60;99.90
22923;DHT22;11627;51.322;22.816;2023-04-01T01:58:33;7.60;99.90
22923;DHT22;11627;51.322;22.816;2023-04-01T02:01:17;7.60;99.90
22923;DHT22;11627;51.322;22.816;2023-04-01T02:03:46;7.60;99.90
22923;DHT22;11627;51.322;22.816;2023-04-01T02:06:15;7.60;99.90
22923;DHT22;11627;51.322;22.816;2023-04-01T02:08:47;7.60;99.90
22923;DHT22;11627;51.322;22.816;2023-04-01T02:11:20;7.60;99.90
22923;DHT22;11627;51.322;22.816;2023-04-01T02:13:58;7.60;99.90
22923;DHT22;11627;51.322;22.816;2023-04-01T02:20:09;7.60;99.90
22923;DHT22;11627;51.322;22.816;2023-04-01T02:22:43;7.60;99.90
22923;DHT22;11627;51.322;22.816;2023-04-01T02:25:13;7.60;99.90
22923;DHT22;11627;51.322;22.816;2023-04-01T02:27:41;7.60;99.90
22923;DHT22;11627;51.322;22.816;2023-04-01T02:30:08;7.60;99.90
22923;DHT22;11627;51.322;22.816;2023-04-01T02:32:35;7.60;99.90
22923;DHT22;11627;51.322;22.816;2023-04-01T02:35:07;7.70;99.90
22923;DHT22;11627;51.322;22.816;2023-04-01T02:37:34;7.70;99.90
22923;DHT22;11627;51.322;22.816;2023-04-01T02:40:02;7.80;99.90
22923;DHT22;11627;51.322;22.816;2023-04-01T02:42:28;7.70;99.90
22923;DHT22;11627;51.322;22.816;2023-04-01T02:44:53;7.80;99.90
22923;DHT22;11627;51.322;22.816;2023-04-01T02:47:19;7.80;99.90
22923;DHT22;11627;51.322;22.816;2023-04-01T02:49:46;7.70;99.90
22923;DHT22;11627;51.322;22.816;2023-04-01T02:52:13;7.80;99.90
22923;DHT22;11627;51.322;22.816;2023-04-01T02:54:40;7.80;99.90
22923;DHT22;11627;51.322;22.816;2023-04-01T02:57:06;7.80;99.90
22923;DHT22;11627;51.322;22.816;2023-04-01T02:59:32;7.70;99.90
22923;DHT22;11627;51.322;22.816;2023-04-01T03:01:58;7.80;99.90
22923;DHT22;11627;51.322;22.816;2023-04-01T03:04:23;7.80;99.90
22923;DHT22;11627;51.322;22.816;2023-04-01T03:06:50;7.80;99.90
22923;DHT22;11627;51.322;22.816;2023-04-01T03:09:18;7.80;99.90
22923;DHT22;11627;51.322;22.816;2023-04-01T03:11:43;7.90;99.90
22923;DHT22;11627;51.322;22.816;2023-04-01T03:14:09;7.90;99.90
22923;DHT22;11627;51.322;22.816;2023-04-01T03:16:36;7.90;99.90
22923;DHT22;11627;51.322;22.816;2023-04-01T03:19:03;7.90;99.90
22923;DHT22;11627;51.322;22.816;2023-04-01T03:21:29;7.90;99.90
22923;DHT22;11627;51.322;22.816;2023-04-01T03:23:54;7.80;99.90
22923;DHT22;11627;51.322;22.816;2023-04-01T03:26:20;7.80;99.90
22923;DHT22;11627;51.322;22.816;2023-04-01T03:28:47;7.90;99.90
22923;DHT22;11627;51.322;22.816;2023-04-01T03:31:13;7.90;99.90
22923;DHT22;11627;51.322;22.816;2023-04-01T03:33:39;7.90;99.90
22923;DHT22;11627;51.322;22.816;2023-04-01T03:36:06;7.90;99.90
22923;DHT22;11627;51.322;22.816;2023-04-01T03:38:34;7.80;99.90
22923;DHT22;11627;51.322;22.816;2023-04-01T03:41:01;7.80;99.90
22923;DHT22;11627;51.322;22.816;2023-04-01T03:43:28;7.80;99.90
22923;DHT22;11627;51.322;22.816;2023-04-01T03:45:54;7.80;99.90
22923;DHT22;11627;51.322;22.816;2023-04-01T03:48:21;7.80;99.90
22923;DHT22;11627;51.322;22.816;2023-04-01T03:50:47;7.70;99.90
22923;DHT22;11627;51.322;22.816;2023-04-01T03:53:13;7.70;99.90
22923;DHT22;11627;51.322;22.816;2023-04-01T03:55:39;7.70;99.90
22923;DHT22;11627;51.322;22.816;2023-04-01T03:58:06;7.70;99.90
22923;DHT22;11627;51.322;22.816;2023-04-01T04:00:33;7.70;99.90
22923;DHT22;11627;51.322;22.816;2023-04-01T04:02:59;7.70;99.90
22923;DHT22;11627;51.322;22.816;2023-04-01T04:05:25;7.70;99.90
22923;DHT22;11627;51.322;22.816;2023-04-01T04:07:53;7.80;99.90
22923;DHT22;11627;51.322;22.816;2023-04-01T04:10:19;7.70;99.90
22923;DHT22;11627;51.322;22.816;2023-04-01T04:12:45;7.80;99.90
22923;DHT22;11627;51.322;22.816;2023-04-01T04:15:12;7.80;99.90
22923;DHT22;11627;51.322;22.816;2023-04-01T04:17:38;7.80;99.90
22923;DHT22;11627;51.322;22.816;2023-04-01T04:20:05;7.80;99.90
22923;DHT22;11627;51.322;22.816;2023-04-01T04:22:34;7.80;99.90
22923;DHT22;11627;51.322;22.816;2023-04-01T04:24:59;7.80;99.90
22923;DHT22;11627;51.322;22.816;2023-04-01T04:27:25;7.80;99.90
22923;DHT22;11627;51.322;22.816;2023-04-01T04:29:52;7.80;99.90
22923;DHT22;11627;51.322;22.816;2023-04-01T04:32:18;7.90;99.90
22923;DHT22;11627;51.322;22.816;2023-04-01T04:34:45;7.90;99.90
22923;DHT22;11627;51.322;22.816;2023-04-01T04:37:11;7.90;99.90
22923;DHT22;11627;51.322;22.816;2023-04-01T04:39:38;7.90;99.90
22923;DHT22;11627;51.322;22.816;2023-04-01T04:42:04;7.90;99.90
22923;DHT22;11627;51.322;22.816;2023-04-01T04:44:31;7.90;99.90
22923;DHT22;11627;51.322;22.816;2023-04-01T04:46:57;7.90;99.90
22923;DHT22;11627;51.322;22.816;2023-04-01T04:49:23;7.90;99.90
22923;DHT22;11627;51.322;22.816;2023-04-01T04:51:48;7.90;99.90
22923;DHT22;11627;51.322;22.816;2023-04-01T04:54:15;7.90;99.90
22923;DHT22;11627;51.322;22.816;2023-04-01T04:56:41;7.90;99.90
22923;DHT22;11627;51.322;22.816;2023-04-01T04:59:07;7.90;99.90
22923;DHT22;11627;51.322;22.816;2023-04-01T05:01:33;7.90;99.90
22923;DHT22;11627;51.322;22.816;2023-04-01T05:03:59;7.90;99.90
22923;DHT22;11627;51.322;22.816;2023-04-01T05:06:25;7.90;99.90
22923;DHT22;11627;51.322;22.816;2023-04-01T05:08:55;7.90;99.90
22923;DHT22;11627;51.322;22.816;2023-04-01T05:11:20;7.90;99.90
22923;DHT22;11627;51.322;22.816;2023-04-01T05:13:46;7.90;99.90
22923;DHT22;11627;51.322;22.816;2023-04-01T05:16:17;8.00;99.90
22923;DHT22;11627;51.322;22.816;2023-04-01T05:18:46;8.00;99.90
22923;DHT22;11627;51.322;22.816;2023-04-01T05:21:14;8.10;99.90
22923;DHT22;11627;51.322;22.816;2023-04-01T05:23:40;8.00;99.90
22923;DHT22;11627;51.322;22.816;2023-04-01T05:26:08;8.10;99.90
22923;DHT22;11627;51.322;22.816;2023-04-01T05:28:34;8.10;99.90
22923;DHT22;11627;51.322;22.816;2023-04-01T05:31:01;8.10;99.90
22923;DHT22;11627;51.322;22.816;2023-04-01T05:33:30;8.10;99.90
22923;DHT22;11627;51.322;22.816;2023-04-01T05:35:56;8.10;99.90
22923;DHT22;11627;51.322;22.816;2023-04-01T05:38:22;8.10;99.90
22923;DHT22;11627;51.322;22.816;2023-04-01T05:40:48;8.10;99.90
22923;DHT22;11627;51.322;22.816;2023-04-01T05:43:14;8.10;99.90
22923;DHT22;11627;51.322;22.816;2023-04-01T05:45:39;8.10;99.90
22923;DHT22;11627;51.322;22.816;2023-04-01T05:48:05;8.00;99.90
22923;DHT22;11627;51.322;22.816;2023-04-01T05:50:32;8.00;99.90
22923;DHT22;11627;51.322;22.816;2023-04-01T05:53:00;8.10;99.90
22923;DHT22;11627;51.322;22.816;2023-04-01T05:55:25;8.20;99.90
22923;DHT22;11627;51.322;22.816;2023-04-01T05:57:51;8.10;99.90
22923;DHT22;11627;51.322;22.816;2023-04-01T06:00:17;8.20;99.90
22923;DHT22;11627;51.322;22.816;2023-04-01T06:02:44;8.30;99.90
22923;DHT22;11627;51.322;22.816;2023-04-01T06:07:39;8.30;99.90
22923;DHT22;11627;51.322;22.816;2023-04-01T06:10:19;8.40;99.90
22923;DHT22;11627;51.322;22.816;2023-04-01T06:26:16;8.50;99.90
22923;DHT22;11627;51.322;22.816;2023-04-01T06:32:06;8.60;99.90
22923;DHT22;11627;51.322;22.816;2023-04-01T06:52:12;8.70;99.90
22923;DHT22;11627;51.322;22.816;2023-04-01T06:54:49;8.70;99.90
22923;DHT22;11627;51.322;22.816;2023-04-01T06:57:43;8.80;99.90
22923;DHT22;11627;51.322;22.816;2023-04-01T07:00:27;8.80;99.90
22923;DHT22;11627;51.322;22.816;2023-04-01T07:05:42;8.90;99.90
22923;DHT22;11627;51.322;22.816;2023-04-01T07:08:38;8.90;99.90
22923;DHT22;11627;51.322;22.816;2023-04-01T07:11:17;9.10;99.90
22923;DHT22;11627;51.322;22.816;2023-04-01T07:13:55;9.10;99.90
22923;DHT22;11627;51.322;22.816;2023-04-01T07:16:39;9.10;99.90
22923;DHT22;11627;51.322;22.816;2023-04-01T07:21:55;9.40;99.90
22923;DHT22;11627;51.322;22.816;2023-04-01T07:24:26;9.50;99.90
22923;DHT22;11627;51.322;22.816;2023-04-01T07:26:55;9.50;99.90
22923;DHT22;11627;51.322;22.816;2023-04-01T07:29:21;9.50;99.90
22923;DHT22;11627;51.322;22.816;2023-04-01T07:34:36;9.60;99.90
22923;DHT22;11627;51.322;22.816;2023-04-01T07:50:18;9.90;99.90
22923;DHT22;11627;51.322;22.816;2023-04-01T08:01:14;10.20;99.90
22923;DHT22;11627;51.322;22.816;2023-04-01T08:09:31;10.60;99.90
22923;DHT22;11627;51.322;22.816;2023-04-01T08:12:20;10.60;99.90
22923;DHT22;11627;51.322;22.816;2023-04-01T08:17:50;10.70;99.90
22923;DHT22;11627;51.322;22.816;2023-04-01T08:26:23;11.10;99.90
22923;DHT22;11627;51.322;22.816;2023-04-01T08:29:20;11.30;99.90
22923;DHT22;11627;51.322;22.816;2023-04-01T08:34:38;11.40;99.90
22923;DHT22;11627;51.322;22.816;2023-04-01T08:37:12;11.40;99.90
22923;DHT22;11627;51.322;22.816;2023-04-01T08:39:50;11.50;99.90
22923;DHT22;11627;51.322;22.816;2023-04-01T08:56:15;11.70;92.80
22923;DHT22;11627;51.322;22.816;2023-04-01T09:15:37;11.70;50.90
22923;DHT22;11627;51.322;22.816;2023-04-01T09:21:18;12.10;65.10
22923;DHT22;11627;51.322;22.816;2023-04-01T09:44:03;12.30;13.10
22923;DHT22;11627;51.322;22.816;2023-04-01T09:57:30;12.50;17.80
22923;DHT22;11627;51.322;22.816;2023-04-01T10:08:36;12.50;1.00
22923;DHT22;11627;51.322;22.816;2023-04-01T10:16:52;12.60;18.40
22923;DHT22;11627;51.322;22.816;2023-04-01T10:30:57;12.20;21.60
22923;DHT22;11627;51.322;22.816;2023-04-01T10:36:22;12.30;20.60
22923;DHT22;11627;51.322;22.816;2023-04-01T10:39:17;12.10;18.30
22923;DHT22;11627;51.322;22.816;2023-04-01T11:25:22;13.00;1.00
22923;DHT22;11627;51.322;22.816;2023-04-01T11:36:42;13.20;1.00
22923;DHT22;11627;51.322;22.816;2023-04-01T11:39:24;13.00;1.00
22923;DHT22;11627;51.322;22.816;2023-04-01T11:45:01;12.90;1.00
22923;DHT22;11627;51.322;22.816;2023-04-01T11:47:48;12.80;1.00
22923;DHT22;11627;51.322;22.816;2023-04-01T11:58:43;12.60;1.00
22923;DHT22;11627;51.322;22.816;2023-04-01T12:01:45;12.70;1.00
22923;DHT22;11627;51.322;22.816;2023-04-01T12:04:26;12.80;1.00
22923;DHT22;11627;51.322;22.816;2023-04-01T12:10:20;12.70;1.00
22923;DHT22;11627;51.322;22.816;2023-04-01T12:13:14;12.70;2.50
22923;DHT22;11627;51.322;22.816;2023-04-01T12:15:50;12.90;17.70
22923;DHT22;11627;51.322;22.816;2023-04-01T12:18:31;12.80;1.00
22923;DHT22;11627;51.322;22.816;2023-04-01T12:24:22;12.80;1.00
22923;DHT22;11627;51.322;22.816;2023-04-01T13:16:41;11.10;79.80
22923;DHT22;11627;51.322;22.816;2023-04-01T13:19:25;11.10;80.80
22923;DHT22;11627;51.322;22.816;2023-04-01T13:25:21;11.40;70.80
22923;DHT22;11627;51.322;22.816;2023-04-01T13:27:44;11.60;58.20
22923;DHT22;11627;51.322;22.816;2023-04-01T13:31:09;11.60;61.50
22923;DHT22;11627;51.322;22.816;2023-04-01T13:53:03;12.30;1.00
22923;DHT22;11627;51.322;22.816;2023-04-01T13:55:58;12.40;1.00
22923;DHT22;11627;51.322;22.816;2023-04-01T13:58:42;12.20;1.00
22923;DHT22;11627;51.322;22.816;2023-04-01T14:01:14;12.20;1.00
22923;DHT22;11627;51.322;22.816;2023-04-01T14:09:51;13.00;1.00
22923;DHT22;11627;51.322;22.816;2023-04-01T14:12:32;12.90;1.00
22923;DHT22;11627;51.322;22.816;2023-04-01T14:29:47;12.60;23.40
22923;DHT22;11627;51.322;22.816;2023-04-01T14:35:21;12.20;20.50
22923;DHT22;11627;51.322;22.816;2023-04-01T14:44:00;12.00;82.30
22923;DHT22;11627;51.322;22.816;2023-04-01T14:49:42;11.50;99.90
22923;DHT22;11627;51.322;22.816;2023-04-01T14:52:15;11.30;99.90
22923;DHT22;11627;51.322;22.816;2023-04-01T14:54:44;11.10;92.40
22923;DHT22;11627;51.322;22.816;2023-04-01T14:57:13;10.90;95.30
22923;DHT22;11627;51.322;22.816;2023-04-01T15:00:09;10.70;98.50
22923;DHT22;11627;51.322;22.816;2023-04-01T15:34:59;10.50;99.90
22923;DHT22;11627;51.322;22.816;2023-04-01T15:38:04;10.50;99.90
22923;DHT22;11627;51.322;22.816;2023-04-01T15:40:47;10.50;99.90
22923;DHT22;11627;51.322;22.816;2023-04-01T15:49:11;10.40;99.90
22923;DHT22;11627;51.322;22.816;2023-04-01T16:00:09;10.30;99.90
22923;DHT22;11627;51.322;22.816;2023-04-01T16:12:19;10.20;99.90
22923;DHT22;11627;51.322;22.816;2023-04-01T16:17:48;10.10;99.90
22923;DHT22;11627;51.322;22.816;2023-04-01T16:20:23;10.20;99.90
22923;DHT22;11627;51.322;22.816;2023-04-01T16:25:43;10.10;99.90
22923;DHT22;11627;51.322;22.816;2023-04-01T16:34:35;10.10;99.90
22923;DHT22;11627;51.322;22.816;2023-04-01T16:37:21;10.10;99.90
22923;DHT22;11627;51.322;22.816;2023-04-01T16:40:16;10.10;99.90
22923;DHT22;11627;51.322;22.816;2023-04-01T16:42:53;10.10;99.90
22923;DHT22;11627;51.322;22.816;2023-04-01T16:45:34;10.00;99.90
22923;DHT22;11627;51.322;22.816;2023-04-01T16:48:14;10.00;99.90
22923;DHT22;11627;51.322;22.816;2023-04-01T16:51:03;9.90;99.90
22923;DHT22;11627;51.322;22.816;2023-04-01T16:53:52;9.80;99.90
22923;DHT22;11627;51.322;22.816;2023-04-01T16:56:40;9.80;99.90
22923;DHT22;11627;51.322;22.816;2023-04-01T16:59:34;9.70;99.90
22923;DHT22;11627;51.322;22.816;2023-04-01T17:04:47;9.70;99.90
22923;DHT22;11627;51.322;22.816;2023-04-01T17:07:29;9.70;99.90
22923;DHT22;11627;51.322;22.816;2023-04-01T17:10:29;9.60;99.90
22923;DHT22;11627;51.322;22.816;2023-04-01T17:21:54;9.50;99.90
22923;DHT22;11627;51.322;22.816;2023-04-01T17:30:26;9.40;99.90
22923;DHT22;11627;51.322;22.816;2023-04-01T17:33:23;9.40;99.90
22923;DHT22;11627;51.322;22.816;2023-04-01T17:50:16;9.20;99.90
22923;DHT22;11627;51.322;22.816;2023-04-01T18:01:07;9.20;99.90
22923;DHT22;11627;51.322;22.816;2023-04-01T18:06:33;9.20;99.90
22923;DHT22;11627;51.322;22.816;2023-04-01T18:09:29;9.20;99.90
22923;DHT22;11627;51.322;22.816;2023-04-01T18:15:18;9.10;99.90
22923;DHT22;11627;51.322;22.816;2023-04-01T18:20:54;8.90;99.90
22923;DHT22;11627;51.322;22.816;2023-04-01T18:26:50;8.90;99.90
22923;DHT22;11627;51.322;22.816;2023-04-01T18:38:06;8.80;99.90
22923;DHT22;11627;51.322;22.816;2023-04-01T18:40:50;8.90;99.90
22923;DHT22;11627;51.322;22.816;2023-04-01T18:45:58;8.90;99.90
22923;DHT22;11627;51.322;22.816;2023-04-01T18:48:55;8.80;99.90
22923;DHT22;11627;51.322;22.816;2023-04-01T18:51:44;8.70;99.90
22923;DHT22;11627;51.322;22.816;2023-04-01T18:54:30;8.70;99.90
22923;DHT22;11627;51.322;22.816;2023-04-01T18:57:13;8.60;99.90
22923;DHT22;11627;51.322;22.816;2023-04-01T18:59:56;8.60;99.90
22923;DHT22;11627;51.322;22.816;2023-04-01T19:02:38;8.60;99.90
22923;DHT22;11627;51.322;22.816;2023-04-01T19:05:29;8.60;99.90
22923;DHT22;11627;51.322;22.816;2023-04-01T19:08:33;8.60;99.90
22923;DHT22;11627;51.322;22.816;2023-04-01T19:14:19;8.60;99.90
22923;DHT22;11627;51.322;22.816;2023-04-01T19:25:26;8.60;99.90
22923;DHT22;11627;51.322;22.816;2023-04-01T19:28:39;8.60;99.90
22923;DHT22;11627;51.322;22.816;2023-04-01T19:34:22;8.50;99.90
22923;DHT22;11627;51.322;22.816;2023-04-01T19:50:59;8.50;99.90
22923;DHT22;11627;51.322;22.816;2023-04-01T19:53:44;8.50;99.90
22923;DHT22;11627;51.322;22.816;2023-04-01T19:56:21;8.50;99.90
22923;DHT22;11627;51.322;22.816;2023-04-01T19:58:59;8.50;99.90
22923;DHT22;11627;51.322;22.816;2023-04-01T20:01:48;8.50;99.90
22923;DHT22;11627;51.322;22.816;2023-04-01T20:04:55;8.60;99.90
22923;DHT22;11627;51.322;22.816;2023-04-01T20:10:48;8.60;99.90
22923;DHT22;11627;51.322;22.816;2023-04-01T20:13:47;8.60;99.90
22923;DHT22;11627;51.322;22.816;2023-04-01T20:16:18;8.60;99.90
22923;DHT22;11627;51.322;22.816;2023-04-01T20:18:57;8.60;99.90
22923;DHT22;11627;51.322;22.816;2023-04-01T20:21:36;8.60;99.90
22923;DHT22;11627;51.322;22.816;2023-04-01T20:24:25;8.50;99.90
22923;DHT22;11627;51.322;22.816;2023-04-01T20:27:24;8.50;99.90
22923;DHT22;11627;51.322;22.816;2023-04-01T20:32:47;8.50;99.90
22923;DHT22;11627;51.322;22.816;2023-04-01T20:35:36;8.50;99.90
22923;DHT22;11627;51.322;22.816;2023-04-01T20:38:18;8.50;99.90
22923;DHT22;11627;51.322;22.816;2023-04-01T20:40:50;8.50;99.90
22923;DHT22;11627;51.322;22.816;2023-04-01T20:48:51;8.50;99.90
22923;DHT22;11627;51.322;22.816;2023-04-01T20:51:37;8.50;99.90
22923;DHT22;11627;51.322;22.816;2023-04-01T20:56:57;8.50;99.90
22923;DHT22;11627;51.322;22.816;2023-04-01T21:22:05;8.50;99.90
22923;DHT22;11627;51.322;22.816;2023-04-01T21:55:53;8.50;99.90
22923;DHT22;11627;51.322;22.816;2023-04-01T22:17:32;8.20;99.90
22923;DHT22;11627;51.322;22.816;2023-04-01T22:20:25;8.10;99.90
22923;DHT22;11627;51.322;22.816;2023-04-01T22:25:59;8.00;99.90
22923;DHT22;11627;51.322;22.816;2023-04-01T22:28:38;8.00;99.90
22923;DHT22;11627;51.322;22.816;2023-04-01T22:31:06;7.90;99.90
22923;DHT22;11627;51.322;22.816;2023-04-01T22:36:33;7.80;99.90
22923;DHT22;11627;51.322;22.816;2023-04-01T22:45:32;7.70;99.90
22923;DHT22;11627;51.322;22.816;2023-04-01T22:56:07;7.50;99.90
22923;DHT22;11627;51.322;22.816;2023-04-01T22:58:56;7.50;99.90
22923;DHT22;11627;51.322;22.816;2023-04-01T23:01:29;7.40;99.90
22923;DHT22;11627;51.322;22.816;2023-04-01T23:03:58;7.40;99.90
22923;DHT22;11627;51.322;22.816;2023-04-01T23:06:31;7.40;99.90
22923;DHT22;11627;51.322;22.816;2023-04-01T23:12:09;7.30;99.90
22923;DHT22;11627;51.322;22.816;2023-04-01T23:14:48;7.20;99.90
22923;DHT22;11627;51.322;22.816;2023-04-01T23:20:10;7.20;99.90
22923;DHT22;11627;51.322;22.816;2023-04-01T23:33:31;7.20;99.90
22923;DHT22;11627;51.322;22.816;2023-04-01T23:35:58;7.20;99.90
22923;DHT22;11627;51.322;22.816;2023-04-01T23:38:36;7.20;99.90
22923;DHT22;11627;51.322;22.816;2023-04-01T23:41:03;7.10;99.90
22923;DHT22;11627;51.322;22.816;2023-04-01T23:43:42;7.10;99.90
22923;DHT22;11627;51.322;22.816;2023-04-01T23:46:12;7.00;99.90
22923;DHT22;11627;51.322;22.816;2023-04-01T23:48:45;7.00;99.90
22923;DHT22;11627;51.322;22.816;2023-04-01T23:51:38;7.00;99.90
22923;DHT22;11627;51.322;22.816;2023-04-01T23:54:18;6.90;99.90
22923;DHT22;11627;51.322;22.816;2023-04-01T23:56:48;6.90;99.90
22923;DHT22;11627;51.322;22.816;2023-04-01T23:59:17;6.90;99.90
